Caronport, Canada
Current Conditions -  °F | °C
As of 5:00 AM on Friday 24 Oct 2014 (Local Time) from CYMJ Reporting Station
Few Clouds Few Clouds  
Wind Chill: 52°   Ceiling: Unl
Heat Index: 52°   Visibility: 15mi
Dew Point: 39°   Wind: 13mph
Humidity: 62%   Direction: 250°WSW
Pressure: 29.67"   Gusts: NA
Location:  50.46°N, 105.82°W
Report Text: CYMJ 241100Z 25011KT 15SM FEW170 11/04 A2967 RMK AC2 SLP055
Loading
Personal Weather Stations






























Interactive Weather Map
Tropical Storm Tracking
New forecast layout! Learn more

10-Day Weather Forecast

Advertisements
Track Severe Weather on mobile